Archival Weather

Chicago O'Hare International

Chicago, Illinois (KORD)

Report from: Tuesday, June 21, 2022 5:51 PM CDT
Current time: Sunday, November 27, 2022 3:43 AM CST

Current weather
Weather history
Weather forecast

Temperature36.1°C (97.0°F)
Heat index39.1°C (102.3°F)
Dew point20.0°C (68.0°F)
Winds 17 kts (8.7 m/s, 19.6 mph) Southwest (230°)
Wind gusts 25 kts (12.9 m/s, 28.8 mph)
Visibility10 mi. (16.1 km)
Clouds Sky clear
Altimeter29.95 in.Hg (1014 mB)
Relative humidity39 %
Density altitude2,673 ft. (815 m)
Sea-level pressure101.4 kPa (1014 mB, 29.93 in.Hg)
Remarks Automated weather observing station with precipitation discriminator
Flight conditions Visual Meteorological Conditions
Raw dataKORD 212251Z 23017G25KT 10SM CLR 36/20 A2995 RMK AO2 SLP135 T03610200
An error has occurred. This application may no longer respond until reloaded. Reload 🗙